sensor_id;sensor_type;location;lat;lon;timestamp;P1;durP1;ratioP1;P2;durP2;ratioP2
21000;SDS011;10658;50.920;12.238;2022-11-15T00:00:32;14.88;;;8.32;;
21000;SDS011;10658;50.920;12.238;2022-11-15T00:04:52;16.25;;;8.68;;
21000;SDS011;10658;50.920;12.238;2022-11-15T00:09:12;13.15;;;8.50;;
21000;SDS011;10658;50.920;12.238;2022-11-15T00:13:32;13.73;;;8.70;;
21000;SDS011;10658;50.920;12.238;2022-11-15T00:17:51;17.48;;;8.82;;
21000;SDS011;10658;50.920;12.238;2022-11-15T00:22:12;15.90;;;7.60;;
21000;SDS011;10658;50.920;12.238;2022-11-15T00:26:32;14.10;;;8.20;;
21000;SDS011;10658;50.920;12.238;2022-11-15T00:30:52;14.40;;;8.65;;
21000;SDS011;10658;50.920;12.238;2022-11-15T00:35:12;16.45;;;8.15;;
21000;SDS011;10658;50.920;12.238;2022-11-15T00:39:32;13.25;;;7.60;;
21000;SDS011;10658;50.920;12.238;2022-11-15T00:43:53;11.48;;;7.30;;
21000;SDS011;10658;50.920;12.238;2022-11-15T00:48:13;12.68;;;8.13;;
21000;SDS011;10658;50.920;12.238;2022-11-15T00:52:32;15.70;;;7.75;;
21000;SDS011;10658;50.920;12.238;2022-11-15T00:56:53;14.32;;;7.75;;
21000;SDS011;10658;50.920;12.238;2022-11-15T01:01:13;12.18;;;7.40;;
21000;SDS011;10658;50.920;12.238;2022-11-15T01:05:36;15.32;;;8.95;;
21000;SDS011;10658;50.920;12.238;2022-11-15T01:09:57;14.07;;;8.02;;
21000;SDS011;10658;50.920;12.238;2022-11-15T01:14:17;15.23;;;7.60;;
21000;SDS011;10658;50.920;12.238;2022-11-15T01:18:37;14.82;;;7.85;;
21000;SDS011;10658;50.920;12.238;2022-11-15T01:22:57;16.75;;;9.05;;
21000;SDS011;10658;50.920;12.238;2022-11-15T01:27:17;15.10;;;7.68;;
21000;SDS011;10658;50.920;12.238;2022-11-15T01:31:37;12.50;;;8.10;;
21000;SDS011;10658;50.920;12.238;2022-11-15T01:35:57;15.48;;;7.95;;
21000;SDS011;10658;50.920;12.238;2022-11-15T01:40:17;14.77;;;7.97;;
21000;SDS011;10658;50.920;12.238;2022-11-15T01:44:42;15.63;;;9.02;;
21000;SDS011;10658;50.920;12.238;2022-11-15T01:49:10;13.88;;;8.02;;
21000;SDS011;10658;50.920;12.238;2022-11-15T01:53:34;14.52;;;8.10;;
21000;SDS011;10658;50.920;12.238;2022-11-15T01:58:00;13.90;;;7.93;;
21000;SDS011;10658;50.920;12.238;2022-11-15T02:02:23;13.18;;;8.02;;
21000;SDS011;10658;50.920;12.238;2022-11-15T02:06:43;12.68;;;8.35;;
21000;SDS011;10658;50.920;12.238;2022-11-15T02:11:07;17.23;;;8.88;;
21000;SDS011;10658;50.920;12.238;2022-11-15T02:15:32;19.77;;;8.48;;
21000;SDS011;10658;50.920;12.238;2022-11-15T02:20:08;12.40;;;7.82;;
21000;SDS011;10658;50.920;12.238;2022-11-15T02:29:15;13.32;;;8.10;;
21000;SDS011;10658;50.920;12.238;2022-11-15T02:34:05;12.68;;;7.50;;
21000;SDS011;10658;50.920;12.238;2022-11-15T02:43:54;14.40;;;8.30;;
21000;SDS011;10658;50.920;12.238;2022-11-15T02:48:34;14.88;;;8.48;;
21000;SDS011;10658;50.920;12.238;2022-11-15T02:52:55;16.58;;;10.10;;
21000;SDS011;10658;50.920;12.238;2022-11-15T02:57:16;15.70;;;8.73;;
21000;SDS011;10658;50.920;12.238;2022-11-15T03:02:04;13.82;;;8.40;;
21000;SDS011;10658;50.920;12.238;2022-11-15T03:11:22;15.25;;;8.13;;
21000;SDS011;10658;50.920;12.238;2022-11-15T03:15:44;11.13;;;6.90;;
21000;SDS011;10658;50.920;12.238;2022-11-15T03:20:31;14.10;;;7.75;;
21000;SDS011;10658;50.920;12.238;2022-11-15T03:24:54;10.32;;;6.93;;
21000;SDS011;10658;50.920;12.238;2022-11-15T03:29:19;10.38;;;6.45;;
21000;SDS011;10658;50.920;12.238;2022-11-15T03:33:44;12.10;;;7.30;;
21000;SDS011;10658;50.920;12.238;2022-11-15T03:38:14;11.23;;;6.30;;
21000;SDS011;10658;50.920;12.238;2022-11-15T03:42:43;13.63;;;8.73;;
21000;SDS011;10658;50.920;12.238;2022-11-15T03:47:12;13.38;;;7.53;;
21000;SDS011;10658;50.920;12.238;2022-11-15T03:51:57;12.82;;;7.35;;
21000;SDS011;10658;50.920;12.238;2022-11-15T03:56:18;12.48;;;7.28;;
21000;SDS011;10658;50.920;12.238;2022-11-15T04:00:39;12.90;;;8.18;;
21000;SDS011;10658;50.920;12.238;2022-11-15T04:04:59;12.88;;;7.90;;
21000;SDS011;10658;50.920;12.238;2022-11-15T04:09:20;12.63;;;8.70;;
21000;SDS011;10658;50.920;12.238;2022-11-15T04:13:40;16.30;;;8.35;;
21000;SDS011;10658;50.920;12.238;2022-11-15T04:18:01;15.93;;;7.97;;
21000;SDS011;10658;50.920;12.238;2022-11-15T04:22:21;14.43;;;8.02;;
21000;SDS011;10658;50.920;12.238;2022-11-15T04:27:00;13.98;;;7.70;;
21000;SDS011;10658;50.920;12.238;2022-11-15T04:31:20;10.82;;;7.28;;
21000;SDS011;10658;50.920;12.238;2022-11-15T04:35:41;12.07;;;6.93;;
21000;SDS011;10658;50.920;12.238;2022-11-15T04:40:01;12.18;;;7.47;;
21000;SDS011;10658;50.920;12.238;2022-11-15T04:44:21;14.15;;;6.95;;
21000;SDS011;10658;50.920;12.238;2022-11-15T04:48:41;8.88;;;6.70;;
21000;SDS011;10658;50.920;12.238;2022-11-15T04:53:02;12.38;;;7.60;;
21000;SDS011;10658;50.920;12.238;2022-11-15T04:57:22;8.27;;;6.35;;
21000;SDS011;10658;50.920;12.238;2022-11-15T05:01:42;10.93;;;6.30;;
21000;SDS011;10658;50.920;12.238;2022-11-15T05:06:02;11.75;;;7.82;;
21000;SDS011;10658;50.920;12.238;2022-11-15T05:10:22;13.68;;;7.72;;
21000;SDS011;10658;50.920;12.238;2022-11-15T05:14:42;12.50;;;7.55;;
21000;SDS011;10658;50.920;12.238;2022-11-15T05:19:02;11.88;;;6.95;;
21000;SDS011;10658;50.920;12.238;2022-11-15T05:23:22;11.93;;;7.15;;
21000;SDS011;10658;50.920;12.238;2022-11-15T05:27:42;13.93;;;7.38;;
21000;SDS011;10658;50.920;12.238;2022-11-15T05:32:03;14.13;;;7.82;;
21000;SDS011;10658;50.920;12.238;2022-11-15T05:41:19;11.57;;;7.25;;
21000;SDS011;10658;50.920;12.238;2022-11-15T05:45:44;19.02;;;11.07;;
21000;SDS011;10658;50.920;12.238;2022-11-15T05:50:03;13.32;;;6.78;;
21000;SDS011;10658;50.920;12.238;2022-11-15T05:54:24;11.52;;;7.30;;
21000;SDS011;10658;50.920;12.238;2022-11-15T05:58:45;13.43;;;7.32;;
21000;SDS011;10658;50.920;12.238;2022-11-15T06:03:05;12.40;;;6.95;;
21000;SDS011;10658;50.920;12.238;2022-11-15T06:07:25;9.75;;;6.85;;
21000;SDS011;10658;50.920;12.238;2022-11-15T06:11:45;10.52;;;6.30;;
21000;SDS011;10658;50.920;12.238;2022-11-15T06:16:05;11.10;;;6.68;;
21000;SDS011;10658;50.920;12.238;2022-11-15T06:20:27;9.88;;;6.18;;
21000;SDS011;10658;50.920;12.238;2022-11-15T06:24:48;10.07;;;6.28;;
21000;SDS011;10658;50.920;12.238;2022-11-15T06:29:07;10.40;;;6.10;;
21000;SDS011;10658;50.920;12.238;2022-11-15T06:33:28;10.30;;;6.20;;
21000;SDS011;10658;50.920;12.238;2022-11-15T06:37:48;11.60;;;6.00;;
21000;SDS011;10658;50.920;12.238;2022-11-15T06:42:11;8.60;;;5.57;;
21000;SDS011;10658;50.920;12.238;2022-11-15T06:46:33;9.77;;;6.43;;
21000;SDS011;10658;50.920;12.238;2022-11-15T06:50:56;10.18;;;6.03;;
21000;SDS011;10658;50.920;12.238;2022-11-15T06:55:17;13.55;;;7.43;;
21000;SDS011;10658;50.920;12.238;2022-11-15T06:59:38;11.63;;;6.25;;
21000;SDS011;10658;50.920;12.238;2022-11-15T07:03:59;10.73;;;6.28;;
21000;SDS011;10658;50.920;12.238;2022-11-15T07:08:18;12.85;;;7.35;;
21000;SDS011;10658;50.920;12.238;2022-11-15T07:12:39;13.48;;;6.88;;
21000;SDS011;10658;50.920;12.238;2022-11-15T07:17:00;10.45;;;7.03;;
21000;SDS011;10658;50.920;12.238;2022-11-15T07:21:24;12.07;;;7.28;;
21000;SDS011;10658;50.920;12.238;2022-11-15T07:25:45;11.48;;;6.03;;
21000;SDS011;10658;50.920;12.238;2022-11-15T07:30:05;9.82;;;5.47;;
21000;SDS011;10658;50.920;12.238;2022-11-15T07:34:25;9.30;;;5.85;;
21000;SDS011;10658;50.920;12.238;2022-11-15T07:38:45;11.85;;;6.47;;
21000;SDS011;10658;50.920;12.238;2022-11-15T07:43:05;7.45;;;5.38;;
21000;SDS011;10658;50.920;12.238;2022-11-15T07:47:28;9.57;;;6.22;;
21000;SDS011;10658;50.920;12.238;2022-11-15T07:51:47;9.40;;;5.60;;
21000;SDS011;10658;50.920;12.238;2022-11-15T07:56:07;10.13;;;5.97;;
21000;SDS011;10658;50.920;12.238;2022-11-15T08:00:28;9.52;;;6.63;;
21000;SDS011;10658;50.920;12.238;2022-11-15T08:04:49;10.82;;;6.18;;
21000;SDS011;10658;50.920;12.238;2022-11-15T08:09:10;9.18;;;5.57;;
21000;SDS011;10658;50.920;12.238;2022-11-15T08:13:30;8.23;;;4.97;;
21000;SDS011;10658;50.920;12.238;2022-11-15T08:17:55;11.55;;;6.88;;
21000;SDS011;10658;50.920;12.238;2022-11-15T08:22:17;11.52;;;6.50;;
21000;SDS011;10658;50.920;12.238;2022-11-15T08:26:38;10.70;;;7.07;;
21000;SDS011;10658;50.920;12.238;2022-11-15T08:30:57;10.15;;;7.10;;
21000;SDS011;10658;50.920;12.238;2022-11-15T08:35:18;9.57;;;6.30;;
21000;SDS011;10658;50.920;12.238;2022-11-15T08:39:39;8.07;;;5.63;;
21000;SDS011;10658;50.920;12.238;2022-11-15T08:43:59;10.00;;;5.47;;
21000;SDS011;10658;50.920;12.238;2022-11-15T08:48:19;8.25;;;5.35;;
21000;SDS011;10658;50.920;12.238;2022-11-15T08:52:41;8.77;;;5.05;;
21000;SDS011;10658;50.920;12.238;2022-11-15T08:57:02;10.30;;;5.82;;
21000;SDS011;10658;50.920;12.238;2022-11-15T09:01:23;6.72;;;4.22;;
21000;SDS011;10658;50.920;12.238;2022-11-15T09:05:44;6.03;;;4.25;;
21000;SDS011;10658;50.920;12.238;2022-11-15T09:10:04;10.73;;;5.35;;
21000;SDS011;10658;50.920;12.238;2022-11-15T09:14:25;7.10;;;4.63;;
21000;SDS011;10658;50.920;12.238;2022-11-15T09:18:48;6.05;;;3.95;;
21000;SDS011;10658;50.920;12.238;2022-11-15T09:23:08;5.25;;;3.17;;
21000;SDS011;10658;50.920;12.238;2022-11-15T09:27:28;3.55;;;2.90;;
21000;SDS011;10658;50.920;12.238;2022-11-15T09:31:53;4.80;;;3.13;;
21000;SDS011;10658;50.920;12.238;2022-11-15T09:36:13;4.53;;;3.00;;
21000;SDS011;10658;50.920;12.238;2022-11-15T09:40:35;6.32;;;3.53;;
21000;SDS011;10658;50.920;12.238;2022-11-15T09:49:20;4.25;;;2.95;;
21000;SDS011;10658;50.920;12.238;2022-11-15T09:53:55;5.45;;;3.60;;
21000;SDS011;10658;50.920;12.238;2022-11-15T10:06:43;3.65;;;2.97;;
21000;SDS011;10658;50.920;12.238;2022-11-15T10:11:00;3.72;;;2.85;;
21000;SDS011;10658;50.920;12.238;2022-11-15T10:15:05;3.63;;;2.65;;
21000;SDS011;10658;50.920;12.238;2022-11-15T10:19:20;5.28;;;2.90;;
21000;SDS011;10658;50.920;12.238;2022-11-15T10:23:44;3.38;;;2.97;;
21000;SDS011;10658;50.920;12.238;2022-11-15T10:27:56;4.97;;;3.00;;
21000;SDS011;10658;50.920;12.238;2022-11-15T10:32:07;3.67;;;2.92;;
21000;SDS011;10658;50.920;12.238;2022-11-15T10:44:30;3.03;;;2.30;;
21000;SDS011;10658;50.920;12.238;2022-11-15T10:48:32;3.63;;;2.97;;
21000;SDS011;10658;50.920;12.238;2022-11-15T10:52:34;3.00;;;2.70;;
21000;SDS011;10658;50.920;12.238;2022-11-15T10:56:38;3.67;;;2.63;;
21000;SDS011;10658;50.920;12.238;2022-11-15T11:00:43;4.13;;;2.80;;
21000;SDS011;10658;50.920;12.238;2022-11-15T11:04:49;3.70;;;2.35;;
21000;SDS011;10658;50.920;12.238;2022-11-15T11:09:02;3.45;;;2.80;;
21000;SDS011;10658;50.920;12.238;2022-11-15T11:13:15;4.68;;;2.58;;
21000;SDS011;10658;50.920;12.238;2022-11-15T11:21:38;3.97;;;3.13;;
21000;SDS011;10658;50.920;12.238;2022-11-15T11:30:14;3.15;;;2.47;;
21000;SDS011;10658;50.920;12.238;2022-11-15T11:34:36;3.28;;;2.90;;
21000;SDS011;10658;50.920;12.238;2022-11-15T11:39:06;2.78;;;2.25;;
21000;SDS011;10658;50.920;12.238;2022-11-15T11:43:34;3.53;;;2.38;;
21000;SDS011;10658;50.920;12.238;2022-11-15T11:56:41;3.70;;;2.05;;
21000;SDS011;10658;50.920;12.238;2022-11-15T12:00:46;4.13;;;2.42;;
21000;SDS011;10658;50.920;12.238;2022-11-15T12:05:09;2.65;;;1.77;;
21000;SDS011;10658;50.920;12.238;2022-11-15T12:09:41;4.40;;;2.45;;
21000;SDS011;10658;50.920;12.238;2022-11-15T12:18:31;2.80;;;2.08;;
21000;SDS011;10658;50.920;12.238;2022-11-15T12:26:39;4.28;;;2.15;;
21000;SDS011;10658;50.920;12.238;2022-11-15T12:31:18;2.65;;;1.75;;
21000;SDS011;10658;50.920;12.238;2022-11-15T12:35:41;3.22;;;1.60;;
21000;SDS011;10658;50.920;12.238;2022-11-15T12:40:03;2.95;;;1.80;;
21000;SDS011;10658;50.920;12.238;2022-11-15T12:52:36;3.00;;;2.15;;
21000;SDS011;10658;50.920;12.238;2022-11-15T13:13:44;4.70;;;2.67;;
21000;SDS011;10658;50.920;12.238;2022-11-15T13:17:46;3.17;;;2.50;;
21000;SDS011;10658;50.920;12.238;2022-11-15T13:21:47;4.65;;;3.10;;
21000;SDS011;10658;50.920;12.238;2022-11-15T13:26:28;4.63;;;2.28;;
21000;SDS011;10658;50.920;12.238;2022-11-15T13:30:31;5.50;;;2.42;;
21000;SDS011;10658;50.920;12.238;2022-11-15T13:34:34;7.15;;;3.90;;
21000;SDS011;10658;50.920;12.238;2022-11-15T13:38:37;4.32;;;3.17;;
21000;SDS011;10658;50.920;12.238;2022-11-15T13:42:41;4.15;;;2.97;;
21000;SDS011;10658;50.920;12.238;2022-11-15T13:46:42;4.22;;;1.83;;
21000;SDS011;10658;50.920;12.238;2022-11-15T13:50:43;1.73;;;1.45;;
21000;SDS011;10658;50.920;12.238;2022-11-15T13:58:49;2.80;;;1.98;;
21000;SDS011;10658;50.920;12.238;2022-11-15T14:02:50;4.60;;;1.90;;
21000;SDS011;10658;50.920;12.238;2022-11-15T14:06:53;4.25;;;1.88;;
21000;SDS011;10658;50.920;12.238;2022-11-15T14:11:07;3.22;;;2.92;;
21000;SDS011;10658;50.920;12.238;2022-11-15T14:15:24;3.53;;;2.75;;
21000;SDS011;10658;50.920;12.238;2022-11-15T14:23:27;3.83;;;2.67;;
21000;SDS011;10658;50.920;12.238;2022-11-15T14:27:29;6.07;;;3.83;;
21000;SDS011;10658;50.920;12.238;2022-11-15T14:31:31;8.65;;;4.90;;
21000;SDS011;10658;50.920;12.238;2022-11-15T14:35:32;6.25;;;3.85;;
21000;SDS011;10658;50.920;12.238;2022-11-15T14:39:34;2.22;;;2.03;;
21000;SDS011;10658;50.920;12.238;2022-11-15T14:43:37;4.07;;;1.70;;
21000;SDS011;10658;50.920;12.238;2022-11-15T14:47:38;3.05;;;2.42;;
21000;SDS011;10658;50.920;12.238;2022-11-15T14:51:39;2.40;;;2.03;;
21000;SDS011;10658;50.920;12.238;2022-11-15T14:55:41;2.97;;;2.20;;
21000;SDS011;10658;50.920;12.238;2022-11-15T14:59:42;3.80;;;1.90;;
21000;SDS011;10658;50.920;12.238;2022-11-15T15:03:43;3.45;;;1.95;;
21000;SDS011;10658;50.920;12.238;2022-11-15T15:07:44;4.25;;;2.03;;
21000;SDS011;10658;50.920;12.238;2022-11-15T15:11:47;3.15;;;2.00;;
21000;SDS011;10658;50.920;12.238;2022-11-15T15:15:48;3.10;;;2.08;;
21000;SDS011;10658;50.920;12.238;2022-11-15T15:19:50;2.97;;;2.22;;
21000;SDS011;10658;50.920;12.238;2022-11-15T15:23:51;3.45;;;2.20;;
21000;SDS011;10658;50.920;12.238;2022-11-15T15:27:54;2.90;;;2.08;;
21000;SDS011;10658;50.920;12.238;2022-11-15T15:31:56;4.25;;;2.45;;
21000;SDS011;10658;50.920;12.238;2022-11-15T15:35:57;4.38;;;2.05;;
21000;SDS011;10658;50.920;12.238;2022-11-15T15:39:59;3.67;;;2.50;;
21000;SDS011;10658;50.920;12.238;2022-11-15T15:44:01;4.60;;;2.58;;
21000;SDS011;10658;50.920;12.238;2022-11-15T15:48:02;4.20;;;2.67;;
21000;SDS011;10658;50.920;12.238;2022-11-15T15:52:03;3.38;;;2.00;;
21000;SDS011;10658;50.920;12.238;2022-11-15T15:56:04;3.17;;;2.53;;
21000;SDS011;10658;50.920;12.238;2022-11-15T16:00:08;2.55;;;1.92;;
21000;SDS011;10658;50.920;12.238;2022-11-15T16:04:13;3.53;;;2.58;;
21000;SDS011;10658;50.920;12.238;2022-11-15T16:08:18;8.73;;;2.20;;
21000;SDS011;10658;50.920;12.238;2022-11-15T16:12:20;3.53;;;2.72;;
21000;SDS011;10658;50.920;12.238;2022-11-15T16:16:22;3.50;;;2.60;;
21000;SDS011;10658;50.920;12.238;2022-11-15T16:24:24;5.30;;;2.92;;
21000;SDS011;10658;50.920;12.238;2022-11-15T16:28:26;3.92;;;2.53;;
21000;SDS011;10658;50.920;12.238;2022-11-15T16:32:31;6.80;;;3.05;;
21000;SDS011;10658;50.920;12.238;2022-11-15T16:36:34;4.38;;;3.10;;
21000;SDS011;10658;50.920;12.238;2022-11-15T16:40:35;4.90;;;3.30;;
21000;SDS011;10658;50.920;12.238;2022-11-15T16:44:36;4.20;;;2.92;;
21000;SDS011;10658;50.920;12.238;2022-11-15T16:48:37;8.88;;;5.03;;
21000;SDS011;10658;50.920;12.238;2022-11-15T16:52:39;6.25;;;3.70;;
21000;SDS011;10658;50.920;12.238;2022-11-15T16:56:41;5.80;;;4.10;;
21000;SDS011;10658;50.920;12.238;2022-11-15T17:00:42;8.63;;;4.00;;
21000;SDS011;10658;50.920;12.238;2022-11-15T17:04:44;9.02;;;5.22;;
21000;SDS011;10658;50.920;12.238;2022-11-15T17:08:46;8.02;;;5.03;;
21000;SDS011;10658;50.920;12.238;2022-11-15T17:12:49;7.15;;;4.80;;
21000;SDS011;10658;50.920;12.238;2022-11-15T17:16:50;4.63;;;3.22;;
21000;SDS011;10658;50.920;12.238;2022-11-15T17:20:51;7.10;;;3.92;;
21000;SDS011;10658;50.920;12.238;2022-11-15T17:24:53;6.32;;;4.75;;
21000;SDS011;10658;50.920;12.238;2022-11-15T17:28:54;5.50;;;4.00;;
21000;SDS011;10658;50.920;12.238;2022-11-15T17:32:56;6.13;;;4.30;;
21000;SDS011;10658;50.920;12.238;2022-11-15T17:36:58;6.43;;;4.70;;
21000;SDS011;10658;50.920;12.238;2022-11-15T17:41:03;7.10;;;4.50;;
21000;SDS011;10658;50.920;12.238;2022-11-15T17:45:06;6.40;;;4.68;;
21000;SDS011;10658;50.920;12.238;2022-11-15T17:49:07;6.82;;;4.15;;
21000;SDS011;10658;50.920;12.238;2022-11-15T17:53:09;5.97;;;4.15;;
21000;SDS011;10658;50.920;12.238;2022-11-15T17:57:11;7.00;;;4.20;;
21000;SDS011;10658;50.920;12.238;2022-11-15T18:01:23;4.70;;;3.75;;
21000;SDS011;10658;50.920;12.238;2022-11-15T18:05:25;8.10;;;5.68;;
21000;SDS011;10658;50.920;12.238;2022-11-15T18:09:27;12.88;;;9.32;;
21000;SDS011;10658;50.920;12.238;2022-11-15T18:13:28;9.68;;;7.25;;
21000;SDS011;10658;50.920;12.238;2022-11-15T18:17:29;7.45;;;4.60;;
21000;SDS011;10658;50.920;12.238;2022-11-15T18:21:30;7.88;;;4.07;;
21000;SDS011;10658;50.920;12.238;2022-11-15T18:25:33;9.40;;;4.68;;
21000;SDS011;10658;50.920;12.238;2022-11-15T18:29:34;21.42;;;14.57;;
21000;SDS011;10658;50.920;12.238;2022-11-15T18:33:37;15.43;;;8.57;;
21000;SDS011;10658;50.920;12.238;2022-11-15T18:37:38;7.65;;;5.78;;
21000;SDS011;10658;50.920;12.238;2022-11-15T18:41:39;11.02;;;6.70;;
21000;SDS011;10658;50.920;12.238;2022-11-15T18:45:40;14.20;;;8.82;;
21000;SDS011;10658;50.920;12.238;2022-11-15T18:49:41;17.95;;;10.38;;
21000;SDS011;10658;50.920;12.238;2022-11-15T18:53:43;24.80;;;15.52;;
21000;SDS011;10658;50.920;12.238;2022-11-15T18:57:45;84.32;;;50.78;;
21000;SDS011;10658;50.920;12.238;2022-11-15T19:01:46;62.05;;;37.42;;
21000;SDS011;10658;50.920;12.238;2022-11-15T19:05:47;65.55;;;36.20;;
21000;SDS011;10658;50.920;12.238;2022-11-15T19:09:49;54.22;;;32.10;;
21000;SDS011;10658;50.920;12.238;2022-11-15T19:13:54;41.65;;;27.23;;
21000;SDS011;10658;50.920;12.238;2022-11-15T19:17:57;50.10;;;28.77;;
21000;SDS011;10658;50.920;12.238;2022-11-15T19:21:59;40.92;;;24.40;;
21000;SDS011;10658;50.920;12.238;2022-11-15T19:26:01;34.92;;;23.10;;
21000;SDS011;10658;50.920;12.238;2022-11-15T19:30:04;34.10;;;22.42;;
21000;SDS011;10658;50.920;12.238;2022-11-15T19:34:06;36.13;;;19.35;;
21000;SDS011;10658;50.920;12.238;2022-11-15T19:38:08;31.63;;;20.45;;
21000;SDS011;10658;50.920;12.238;2022-11-15T19:42:09;31.42;;;18.25;;
21000;SDS011;10658;50.920;12.238;2022-11-15T19:46:10;28.45;;;17.40;;
21000;SDS011;10658;50.920;12.238;2022-11-15T19:50:13;26.48;;;16.48;;
21000;SDS011;10658;50.920;12.238;2022-11-15T19:54:14;32.28;;;19.33;;
21000;SDS011;10658;50.920;12.238;2022-11-15T19:58:16;36.63;;;21.48;;
21000;SDS011;10658;50.920;12.238;2022-11-15T20:02:18;35.40;;;21.63;;
21000;SDS011;10658;50.920;12.238;2022-11-15T20:06:21;33.78;;;19.17;;
21000;SDS011;10658;50.920;12.238;2022-11-15T20:10:24;29.27;;;17.92;;
21000;SDS011;10658;50.920;12.238;2022-11-15T20:14:25;26.58;;;17.17;;
21000;SDS011;10658;50.920;12.238;2022-11-15T20:18:27;27.08;;;14.77;;
21000;SDS011;10658;50.920;12.238;2022-11-15T20:22:29;21.67;;;12.77;;
21000;SDS011;10658;50.920;12.238;2022-11-15T20:26:30;19.85;;;12.07;;
21000;SDS011;10658;50.920;12.238;2022-11-15T20:30:31;15.57;;;9.57;;
21000;SDS011;10658;50.920;12.238;2022-11-15T20:34:33;15.23;;;10.80;;
21000;SDS011;10658;50.920;12.238;2022-11-15T20:38:35;14.32;;;9.43;;
21000;SDS011;10658;50.920;12.238;2022-11-15T20:42:36;18.38;;;10.48;;
21000;SDS011;10658;50.920;12.238;2022-11-15T20:46:37;16.90;;;11.20;;
21000;SDS011;10658;50.920;12.238;2022-11-15T20:50:39;19.05;;;10.48;;
21000;SDS011;10658;50.920;12.238;2022-11-15T20:54:41;31.45;;;19.25;;
21000;SDS011;10658;50.920;12.238;2022-11-15T20:58:42;27.38;;;17.15;;
21000;SDS011;10658;50.920;12.238;2022-11-15T21:02:44;29.20;;;16.75;;
21000;SDS011;10658;50.920;12.238;2022-11-15T21:06:46;29.88;;;17.30;;
21000;SDS011;10658;50.920;12.238;2022-11-15T21:10:48;31.38;;;18.17;;
21000;SDS011;10658;50.920;12.238;2022-11-15T21:15:09;29.95;;;17.20;;
21000;SDS011;10658;50.920;12.238;2022-11-15T21:19:11;26.58;;;16.98;;
21000;SDS011;10658;50.920;12.238;2022-11-15T21:23:12;32.58;;;17.98;;
21000;SDS011;10658;50.920;12.238;2022-11-15T21:27:34;30.02;;;17.33;;
21000;SDS011;10658;50.920;12.238;2022-11-15T21:31:35;29.92;;;18.98;;
21000;SDS011;10658;50.920;12.238;2022-11-15T21:35:36;26.30;;;17.35;;
21000;SDS011;10658;50.920;12.238;2022-11-15T21:39:37;27.80;;;17.13;;
21000;SDS011;10658;50.920;12.238;2022-11-15T21:43:38;32.90;;;18.60;;
21000;SDS011;10658;50.920;12.238;2022-11-15T21:47:40;28.92;;;16.60;;
21000;SDS011;10658;50.920;12.238;2022-11-15T21:51:41;28.83;;;16.30;;
21000;SDS011;10658;50.920;12.238;2022-11-15T21:55:43;29.02;;;17.10;;
21000;SDS011;10658;50.920;12.238;2022-11-15T21:59:44;29.25;;;17.80;;
21000;SDS011;10658;50.920;12.238;2022-11-15T22:04:04;30.88;;;17.27;;
21000;SDS011;10658;50.920;12.238;2022-11-15T22:08:07;37.47;;;19.77;;
21000;SDS011;10658;50.920;12.238;2022-11-15T22:12:08;37.63;;;20.90;;
21000;SDS011;10658;50.920;12.238;2022-11-15T22:16:10;47.00;;;25.92;;
21000;SDS011;10658;50.920;12.238;2022-11-15T22:20:11;52.88;;;27.60;;
21000;SDS011;10658;50.920;12.238;2022-11-15T22:24:12;54.10;;;30.00;;
21000;SDS011;10658;50.920;12.238;2022-11-15T22:28:14;39.25;;;23.15;;
21000;SDS011;10658;50.920;12.238;2022-11-15T22:32:15;33.70;;;18.92;;
21000;SDS011;10658;50.920;12.238;2022-11-15T22:36:16;40.53;;;20.10;;
21000;SDS011;10658;50.920;12.238;2022-11-15T22:40:17;31.30;;;18.13;;
21000;SDS011;10658;50.920;12.238;2022-11-15T22:44:18;25.60;;;14.45;;
21000;SDS011;10658;50.920;12.238;2022-11-15T22:48:24;16.67;;;11.65;;
21000;SDS011;10658;50.920;12.238;2022-11-15T22:52:27;24.88;;;13.57;;
21000;SDS011;10658;50.920;12.238;2022-11-15T22:56:29;23.00;;;12.02;;
21000;SDS011;10658;50.920;12.238;2022-11-15T23:00:30;14.93;;;10.43;;
21000;SDS011;10658;50.920;12.238;2022-11-15T23:04:31;17.27;;;9.55;;
21000;SDS011;10658;50.920;12.238;2022-11-15T23:08:32;14.73;;;8.25;;
21000;SDS011;10658;50.920;12.238;2022-11-15T23:12:34;18.45;;;9.90;;
21000;SDS011;10658;50.920;12.238;2022-11-15T23:16:54;15.93;;;10.38;;
21000;SDS011;10658;50.920;12.238;2022-11-15T23:20:56;21.27;;;12.98;;
21000;SDS011;10658;50.920;12.238;2022-11-15T23:24:56;16.25;;;9.90;;
21000;SDS011;10658;50.920;12.238;2022-11-15T23:28:59;15.63;;;9.82;;
21000;SDS011;10658;50.920;12.238;2022-11-15T23:33:01;14.95;;;9.60;;
21000;SDS011;10658;50.920;12.238;2022-11-15T23:37:21;14.68;;;9.93;;
21000;SDS011;10658;50.920;12.238;2022-11-15T23:41:23;28.00;;;14.43;;
21000;SDS011;10658;50.920;12.238;2022-11-15T23:45:25;32.90;;;18.50;;
21000;SDS011;10658;50.920;12.238;2022-11-15T23:49:27;32.13;;;17.13;;
21000;SDS011;10658;50.920;12.238;2022-11-15T23:53:28;24.88;;;14.90;;
21000;SDS011;10658;50.920;12.238;2022-11-15T23:57:29;20.75;;;12.98;;
